createdAt,value
2017-11-07T00:00:40.359Z,1000.25
2017-11-07T00:01:40.346Z,1000.30
2017-11-07T00:02:40.350Z,1000.28
2017-11-07T00:03:40.338Z,1000.30
2017-11-07T00:04:40.329Z,1000.26
2017-11-07T00:05:40.320Z,1000.25
2017-11-07T00:06:40.315Z,1000.28
2017-11-07T00:07:40.314Z,1000.26
2017-11-07T00:08:40.312Z,1000.22
2017-11-07T00:09:40.299Z,1000.26
2017-11-07T00:10:40.296Z,1000.23
2017-11-07T00:11:40.288Z,1000.24
2017-11-07T00:12:40.284Z,1000.25
2017-11-07T00:13:40.281Z,1000.22
2017-11-07T00:14:40.272Z,1000.28
2017-11-07T00:15:40.271Z,1000.28
2017-11-07T00:16:40.264Z,1000.24
2017-11-07T00:17:40.257Z,1000.23
2017-11-07T00:18:40.246Z,1000.24
2017-11-07T00:19:40.242Z,1000.21
2017-11-07T00:20:40.237Z,1000.24
2017-11-07T00:21:40.231Z,1000.19
2017-11-07T00:22:40.236Z,1000.17
2017-11-07T00:23:40.221Z,1000.17
2017-11-07T00:24:40.244Z,1000.16
2017-11-07T00:25:40.210Z,1000.15
2017-11-07T00:26:40.201Z,1000.12
2017-11-07T00:27:40.196Z,1000.16
2017-11-07T00:28:40.193Z,1000.18
2017-11-07T00:29:40.188Z,1000.17
2017-11-07T00:30:40.182Z,1000.19
2017-11-07T00:31:40.177Z,1000.18
2017-11-07T00:32:40.174Z,1000.16
2017-11-07T00:33:40.165Z,1000.23
2017-11-07T00:34:40.156Z,1000.22
2017-11-07T00:35:40.155Z,1000.21
2017-11-07T00:36:40.155Z,1000.21
2017-11-07T00:37:40.143Z,1000.19
2017-11-07T00:38:40.139Z,1000.25
2017-11-07T00:39:40.138Z,1000.20
2017-11-07T00:40:40.126Z,1000.21
2017-11-07T00:41:40.119Z,1000.22
2017-11-07T00:42:40.123Z,1000.22
2017-11-07T00:43:40.108Z,1000.18
2017-11-07T00:44:40.108Z,1000.20
2017-11-07T00:45:40.097Z,1000.21
2017-11-07T00:46:40.092Z,1000.13
2017-11-07T00:47:40.088Z,1000.16
2017-11-07T00:48:40.090Z,1000.13
2017-11-07T00:49:40.082Z,1000.12
2017-11-07T00:50:40.075Z,1000.14
2017-11-07T00:51:40.064Z,1000.11
2017-11-07T00:52:40.061Z,1000.16
2017-11-07T00:53:40.053Z,1000.11
2017-11-07T00:54:40.048Z,1000.14
2017-11-07T00:55:40.044Z,1000.15
2017-11-07T00:56:40.043Z,1000.13
2017-11-07T00:57:40.035Z,1000.13
2017-11-07T00:58:40.029Z,1000.17
2017-11-07T00:59:40.018Z,1000.15
2017-11-07T01:00:40.013Z,1000.14
2017-11-07T01:01:40.008Z,1000.18
2017-11-07T01:02:40.004Z,1000.17
2017-11-07T01:03:39.998Z,1000.17
2017-11-07T01:04:39.993Z,1000.20
2017-11-07T01:05:39.987Z,1000.16
2017-11-07T01:06:39.996Z,1000.17
2017-11-07T01:07:39.978Z,1000.16
2017-11-07T01:08:39.970Z,1000.12
2017-11-07T01:09:39.965Z,1000.14
2017-11-07T01:10:39.959Z,1000.05
2017-11-07T01:11:39.954Z,1000.07
2017-11-07T01:12:39.949Z,1000.04
2017-11-07T01:13:39.943Z,1000.02
2017-11-07T01:14:39.932Z,1000.05
2017-11-07T01:15:39.932Z,1000.09
2017-11-07T01:16:39.923Z,1000.07
2017-11-07T01:17:39.925Z,1000.05
2017-11-07T01:18:39.913Z,1000.06
2017-11-07T01:19:39.914Z,1000.01
2017-11-07T01:20:39.906Z,999.97
2017-11-07T01:21:39.900Z,999.96
2017-11-07T01:22:39.893Z,999.94
2017-11-07T01:23:39.887Z,999.94
2017-11-07T01:24:39.883Z,999.93
2017-11-07T01:25:39.876Z,999.89
2017-11-07T01:26:39.873Z,999.89
2017-11-07T01:27:39.863Z,999.84
2017-11-07T01:28:39.863Z,999.81
2017-11-07T01:29:39.861Z,999.81
2017-11-07T01:30:39.845Z,999.76
2017-11-07T01:31:39.843Z,999.77
2017-11-07T01:32:39.834Z,999.77
2017-11-07T01:33:39.835Z,999.73
2017-11-07T01:34:39.836Z,999.75
2017-11-07T01:35:39.828Z,999.73
2017-11-07T01:36:39.815Z,999.71
2017-11-07T01:37:39.811Z,999.68
2017-11-07T01:38:39.804Z,999.65
2017-11-07T01:39:39.797Z,999.64
2017-11-07T01:40:39.796Z,999.65
2017-11-07T01:41:39.790Z,999.63
2017-11-07T01:42:39.783Z,999.62
2017-11-07T01:43:39.778Z,999.61
2017-11-07T01:44:39.768Z,999.57
2017-11-07T01:45:39.772Z,999.57
2017-11-07T01:46:39.780Z,999.55
2017-11-07T01:47:39.753Z,999.57
2017-11-07T01:48:39.761Z,999.57
2017-11-07T01:49:39.748Z,999.61
2017-11-07T01:50:39.740Z,999.57
2017-11-07T01:51:39.734Z,999.54
2017-11-07T01:52:39.748Z,999.58
2017-11-07T01:53:39.722Z,999.56
2017-11-07T01:54:39.716Z,999.56
2017-11-07T01:55:39.715Z,999.55
2017-11-07T01:56:39.705Z,999.51
2017-11-07T01:57:39.697Z,999.50
2017-11-07T01:58:39.692Z,999.50
2017-11-07T01:59:39.687Z,999.51
2017-11-07T02:00:39.683Z,999.50
2017-11-07T02:01:39.675Z,999.50
2017-11-07T02:02:39.673Z,999.54
2017-11-07T02:03:39.664Z,999.53
2017-11-07T02:04:39.662Z,999.53
2017-11-07T02:05:39.651Z,999.49
2017-11-07T02:06:39.649Z,999.48
2017-11-07T02:07:39.641Z,999.47
2017-11-07T02:08:39.639Z,999.43
2017-11-07T02:09:39.635Z,999.47
2017-11-07T02:10:39.626Z,999.48
2017-11-07T02:11:39.621Z,999.47
2017-11-07T02:12:39.614Z,999.47
2017-11-07T02:13:39.610Z,999.45
2017-11-07T02:14:39.610Z,999.47
2017-11-07T02:15:39.599Z,999.39
2017-11-07T02:16:39.598Z,999.40
2017-11-07T02:17:39.587Z,999.38
2017-11-07T02:18:39.583Z,999.37
2017-11-07T02:19:39.590Z,999.37
2017-11-07T02:20:39.568Z,999.38
2017-11-07T02:21:39.562Z,999.36
2017-11-07T02:22:39.561Z,999.37
2017-11-07T02:23:39.562Z,999.37
2017-11-07T02:24:39.548Z,999.43
2017-11-07T02:25:39.544Z,999.40
2017-11-07T02:26:39.538Z,999.38
2017-11-07T02:27:39.532Z,999.40
2017-11-07T02:28:39.529Z,999.37
2017-11-07T02:29:39.522Z,999.37
2017-11-07T02:30:39.514Z,999.35
2017-11-07T02:31:39.511Z,999.31
2017-11-07T02:32:39.503Z,999.31
2017-11-07T02:33:39.501Z,999.31
2017-11-07T02:34:39.494Z,999.32
2017-11-07T02:35:39.491Z,999.29
2017-11-07T02:36:39.485Z,999.29
2017-11-07T02:37:39.476Z,999.28
2017-11-07T02:38:39.471Z,999.30
2017-11-07T02:39:39.475Z,999.31
2017-11-07T02:40:39.464Z,999.28
2017-11-07T02:41:39.461Z,999.26
2017-11-07T02:42:39.452Z,999.22
2017-11-07T02:43:39.442Z,999.25
2017-11-07T02:44:39.437Z,999.22
2017-11-07T02:45:39.433Z,999.23
2017-11-07T02:46:39.427Z,999.19
2017-11-07T02:47:39.420Z,999.16
2017-11-07T02:48:39.421Z,999.18
2017-11-07T02:49:39.411Z,999.21
2017-11-07T02:50:39.407Z,999.14
2017-11-07T02:51:39.396Z,999.14
2017-11-07T02:52:39.396Z,999.13
2017-11-07T02:53:39.391Z,999.09
2017-11-07T02:54:39.381Z,999.09
2017-11-07T02:55:39.376Z,999.14
2017-11-07T02:56:39.387Z,999.11
2017-11-07T02:57:39.369Z,999.09
2017-11-07T02:58:39.360Z,999.09
2017-11-07T02:59:39.352Z,999.12
2017-11-07T03:00:39.348Z,999.08
2017-11-07T03:01:39.344Z,999.12
2017-11-07T03:02:39.337Z,999.04
2017-11-07T03:03:39.333Z,999.08
2017-11-07T03:04:39.324Z,999.07
2017-11-07T03:05:39.320Z,999.05
2017-11-07T03:06:39.320Z,999.09
2017-11-07T03:07:39.310Z,999.08
2017-11-07T03:08:39.309Z,999.09
2017-11-07T03:09:39.301Z,999.10
2017-11-07T03:10:39.293Z,999.11
2017-11-07T03:11:39.285Z,999.10
2017-11-07T03:12:39.283Z,999.05
2017-11-07T03:13:39.283Z,999.08
2017-11-07T03:14:39.272Z,999.07
2017-11-07T03:15:39.263Z,999.09
2017-11-07T03:16:39.261Z,999.04
2017-11-07T03:17:39.255Z,999.06
2017-11-07T03:18:39.263Z,999.01
2017-11-07T03:19:39.247Z,999.00
2017-11-07T03:20:39.236Z,998.99
2017-11-07T03:21:39.235Z,998.99
2017-11-07T03:22:39.225Z,998.97
2017-11-07T03:23:39.219Z,998.98
2017-11-07T03:24:39.215Z,998.99
2017-11-07T03:25:39.206Z,999.01
2017-11-07T03:26:39.208Z,998.97
2017-11-07T03:27:39.197Z,999.00
2017-11-07T03:28:39.190Z,998.96
2017-11-07T03:29:39.189Z,998.96
2017-11-07T03:30:39.186Z,998.96
2017-11-07T03:31:39.174Z,998.96
2017-11-07T03:32:39.169Z,998.92
2017-11-07T03:33:39.164Z,998.92
2017-11-07T03:34:39.163Z,998.91
2017-11-07T03:35:39.151Z,998.89
2017-11-07T03:36:39.150Z,998.90
2017-11-07T03:37:39.140Z,998.91
2017-11-07T03:38:39.137Z,998.91
2017-11-07T03:39:39.130Z,998.88
2017-11-07T03:40:39.126Z,998.90
2017-11-07T03:41:39.116Z,998.84
2017-11-07T03:42:39.112Z,998.83
2017-11-07T03:43:39.114Z,998.83
2017-11-07T03:44:39.102Z,998.80
2017-11-07T03:45:39.096Z,998.82
2017-11-07T03:46:39.090Z,998.80
2017-11-07T03:47:39.084Z,998.83
2017-11-07T03:48:39.078Z,998.80
2017-11-07T03:49:39.074Z,998.77
2017-11-07T03:50:39.067Z,998.77
2017-11-07T03:51:39.069Z,998.77
2017-11-07T03:52:39.058Z,998.72
2017-11-07T03:53:39.054Z,998.75
2017-11-07T03:54:39.071Z,998.72
2017-11-07T03:55:39.047Z,998.70
2017-11-07T03:56:39.035Z,998.74
2017-11-07T03:57:39.029Z,998.63
2017-11-07T03:58:39.022Z,998.67
2017-11-07T03:59:39.016Z,998.63
2017-11-07T04:00:39.016Z,998.58
2017-11-07T04:01:39.005Z,998.54
2017-11-07T04:02:39.006Z,998.55
2017-11-07T04:03:38.996Z,998.54
2017-11-07T04:04:38.999Z,998.55
2017-11-07T04:05:38.985Z,998.61
2017-11-07T04:06:38.981Z,998.55
2017-11-07T04:07:38.973Z,998.57
2017-11-07T04:08:39.144Z,998.58
2017-11-07T04:09:38.960Z,998.58
2017-11-07T04:10:38.958Z,998.56
2017-11-07T04:11:38.955Z,998.53
2017-11-07T04:12:38.946Z,998.61
2017-11-07T04:13:38.933Z,998.54
2017-11-07T04:14:38.931Z,998.55
2017-11-07T04:15:38.926Z,998.52
2017-11-07T04:16:38.921Z,998.48
2017-11-07T04:17:38.920Z,998.50
2017-11-07T04:18:38.915Z,998.48
2017-11-07T04:19:38.904Z,998.49
2017-11-07T04:20:38.896Z,998.48
2017-11-07T04:21:38.894Z,998.49
2017-11-07T04:22:38.893Z,998.44
2017-11-07T04:23:38.883Z,998.42
2017-11-07T04:24:38.878Z,998.38
2017-11-07T04:25:38.874Z,998.33
2017-11-07T04:26:38.871Z,998.33
2017-11-07T04:27:38.860Z,998.27
2017-11-07T04:28:38.859Z,998.27
2017-11-07T04:29:38.852Z,998.30
2017-11-07T04:30:38.846Z,998.29
2017-11-07T04:31:38.838Z,998.28
2017-11-07T04:32:38.830Z,998.23
2017-11-07T04:33:38.829Z,998.27
2017-11-07T04:34:38.825Z,998.30
2017-11-07T04:35:38.824Z,998.29
2017-11-07T04:36:38.810Z,998.25
2017-11-07T04:37:38.806Z,998.22
2017-11-07T04:38:38.800Z,998.22
2017-11-07T04:39:38.795Z,998.21
2017-11-07T04:40:38.792Z,998.25
2017-11-07T04:41:38.785Z,998.28
2017-11-07T04:42:38.777Z,998.25
2017-11-07T04:43:38.776Z,998.31
2017-11-07T04:44:38.778Z,998.28
2017-11-07T04:45:38.764Z,998.29
2017-11-07T04:46:38.765Z,998.26
2017-11-07T04:47:38.751Z,998.24
2017-11-07T04:48:38.750Z,998.23
2017-11-07T04:49:38.742Z,998.20
2017-11-07T04:50:38.733Z,998.21
2017-11-07T04:51:38.729Z,998.22
2017-11-07T04:52:38.726Z,998.17
2017-11-07T04:53:38.725Z,998.18
2017-11-07T04:54:38.712Z,998.20
2017-11-07T04:55:38.708Z,998.20
2017-11-07T04:56:38.699Z,998.23
2017-11-07T04:57:38.695Z,998.16
2017-11-07T04:58:38.694Z,998.18
2017-11-07T04:59:38.682Z,998.19
2017-11-07T05:00:38.675Z,998.18
2017-11-07T05:01:38.670Z,998.18
2017-11-07T05:02:38.667Z,998.21
2017-11-07T05:03:38.657Z,998.17
2017-11-07T05:04:38.650Z,998.19
2017-11-07T05:05:38.642Z,998.13
2017-11-07T05:06:38.636Z,998.18
2017-11-07T05:07:38.633Z,998.15
2017-11-07T05:08:38.629Z,998.12
2017-11-07T05:09:38.619Z,998.12
2017-11-07T05:10:38.614Z,998.13
2017-11-07T05:11:38.607Z,998.13
2017-11-07T05:12:38.598Z,998.10
2017-11-07T05:13:38.591Z,998.12
2017-11-07T05:14:38.584Z,998.13
2017-11-07T05:15:38.577Z,998.08
2017-11-07T05:16:38.572Z,998.07
2017-11-07T05:17:38.579Z,998.05
2017-11-07T05:18:38.571Z,998.06
2017-11-07T05:19:38.551Z,998.07
2017-11-07T05:20:38.545Z,998.00
2017-11-07T05:21:38.539Z,997.96
2017-11-07T05:22:38.539Z,997.96
2017-11-07T05:23:38.523Z,997.94
2017-11-07T05:24:38.518Z,997.98
2017-11-07T05:25:38.524Z,997.98
2017-11-07T05:26:38.514Z,997.96
2017-11-07T05:27:38.505Z,997.99
2017-11-07T05:28:38.491Z,997.96
2017-11-07T05:29:38.484Z,997.97
2017-11-07T05:30:38.475Z,997.97
2017-11-07T05:31:38.478Z,997.98
2017-11-07T05:32:38.466Z,997.98
2017-11-07T05:33:38.459Z,997.94
2017-11-07T05:34:38.451Z,997.98
2017-11-07T05:35:38.445Z,997.96
2017-11-07T05:36:38.442Z,997.97
2017-11-07T05:37:38.434Z,998.00
2017-11-07T05:38:38.434Z,997.98
2017-11-07T05:39:38.422Z,997.96
2017-11-07T05:40:38.409Z,997.96
2017-11-07T05:41:38.413Z,997.96
2017-11-07T05:42:38.400Z,997.90
2017-11-07T05:43:38.386Z,997.89
2017-11-07T05:44:38.382Z,997.87
2017-11-07T05:45:38.383Z,997.88
2017-11-07T05:46:38.372Z,997.87
2017-11-07T05:47:38.363Z,997.81
2017-11-07T05:48:38.358Z,997.77
2017-11-07T05:49:38.351Z,997.80
2017-11-07T05:50:38.343Z,997.76
2017-11-07T05:51:38.338Z,997.81
2017-11-07T05:52:38.331Z,997.78
2017-11-07T05:53:38.329Z,997.77
2017-11-07T05:54:38.318Z,997.74
2017-11-07T05:55:38.318Z,997.73
2017-11-07T05:56:38.308Z,997.74
2017-11-07T05:57:38.296Z,997.72
2017-11-07T05:58:38.289Z,997.71
2017-11-07T05:59:38.284Z,997.71
2017-11-07T06:00:38.288Z,997.75
2017-11-07T06:01:38.276Z,997.70
2017-11-07T06:02:38.263Z,997.67
2017-11-07T06:03:38.256Z,997.71
2017-11-07T06:04:38.396Z,997.69
2017-11-07T06:05:38.242Z,997.70
2017-11-07T06:06:38.237Z,997.64
2017-11-07T06:07:38.230Z,997.65
2017-11-07T06:08:38.232Z,997.62
2017-11-07T06:09:38.217Z,997.62
2017-11-07T06:10:38.208Z,997.61
2017-11-07T06:11:38.200Z,997.63
2017-11-07T06:12:38.198Z,997.65
2017-11-07T06:13:38.183Z,997.67
2017-11-07T06:14:38.184Z,997.64
2017-11-07T06:15:38.179Z,997.64
2017-11-07T06:16:38.168Z,997.63
2017-11-07T06:17:38.160Z,997.64
2017-11-07T06:18:38.155Z,997.66
2017-11-07T06:19:38.147Z,997.65
2017-11-07T06:20:38.140Z,997.63
2017-11-07T06:21:38.135Z,997.62
2017-11-07T06:22:38.129Z,997.65
2017-11-07T06:23:38.119Z,997.64
2017-11-07T06:24:38.120Z,997.63
2017-11-07T06:25:38.100Z,997.61
2017-11-07T06:26:38.100Z,997.67
2017-11-07T06:27:38.097Z,997.63
2017-11-07T06:28:38.085Z,997.66
2017-11-07T06:29:38.083Z,997.68
2017-11-07T06:30:38.077Z,997.70
2017-11-07T06:31:38.066Z,997.70
2017-11-07T06:32:38.059Z,997.69
2017-11-07T06:33:38.055Z,997.68
2017-11-07T06:34:38.045Z,997.71
2017-11-07T06:35:38.037Z,997.71
2017-11-07T06:36:38.033Z,997.73
2017-11-07T06:37:38.025Z,997.72
2017-11-07T06:38:38.024Z,997.74
2017-11-07T06:39:38.010Z,997.73
2017-11-07T06:40:38.001Z,997.74
2017-11-07T06:41:37.997Z,997.72
2017-11-07T06:42:37.992Z,997.72
2017-11-07T06:43:37.985Z,997.69
2017-11-07T06:44:37.989Z,997.70
2017-11-07T06:45:37.970Z,997.72
2017-11-07T06:46:37.969Z,997.72
2017-11-07T06:47:37.955Z,997.73
2017-11-07T06:48:37.953Z,997.72
2017-11-07T06:49:37.943Z,997.71
2017-11-07T06:50:37.937Z,997.70
2017-11-07T06:51:37.932Z,997.75
2017-11-07T06:52:37.925Z,997.75
2017-11-07T06:53:37.915Z,997.75
2017-11-07T06:54:37.913Z,997.73
2017-11-07T06:55:37.898Z,997.75
2017-11-07T06:56:37.895Z,997.77
2017-11-07T06:57:37.889Z,997.74
2017-11-07T06:58:37.888Z,997.71
2017-11-07T06:59:37.879Z,997.69
2017-11-07T07:00:37.877Z,997.77
2017-11-07T07:01:37.861Z,997.74
2017-11-07T07:02:37.859Z,997.73
2017-11-07T07:03:37.850Z,997.77
2017-11-07T07:04:37.846Z,997.73
2017-11-07T07:05:37.839Z,997.75
2017-11-07T07:06:37.828Z,997.72
2017-11-07T07:07:37.829Z,997.71
2017-11-07T07:08:37.814Z,997.74
2017-11-07T07:09:37.807Z,997.68
2017-11-07T07:10:37.797Z,997.64
2017-11-07T07:11:37.791Z,997.63
2017-11-07T07:12:37.790Z,997.62
2017-11-07T07:13:37.782Z,997.62
2017-11-07T07:14:37.772Z,997.65
2017-11-07T07:15:37.763Z,997.63
2017-11-07T07:16:37.758Z,997.64
2017-11-07T07:17:37.752Z,997.65
2017-11-07T07:18:37.746Z,997.66
2017-11-07T07:19:37.740Z,997.66
2017-11-07T07:20:37.730Z,997.62
2017-11-07T07:21:37.725Z,997.62
2017-11-07T07:22:37.722Z,997.65
2017-11-07T07:23:37.705Z,997.61
2017-11-07T07:24:37.703Z,997.63
2017-11-07T07:25:37.700Z,997.65
2017-11-07T07:26:37.697Z,997.63
2017-11-07T07:27:37.681Z,997.63
2017-11-07T07:28:37.677Z,997.62
2017-11-07T07:29:37.669Z,997.61
2017-11-07T07:30:37.662Z,997.63
2017-11-07T07:31:37.655Z,997.62
2017-11-07T07:32:37.650Z,997.63
2017-11-07T07:33:37.641Z,997.62
2017-11-07T07:34:37.638Z,997.63
2017-11-07T07:35:37.626Z,997.60
2017-11-07T07:36:37.622Z,997.63
2017-11-07T07:37:37.615Z,997.60
2017-11-07T07:38:37.607Z,997.57
2017-11-07T07:39:37.601Z,997.57
2017-11-07T07:40:37.597Z,997.56
2017-11-07T07:41:37.587Z,997.54
2017-11-07T07:42:37.580Z,997.53
2017-11-07T07:43:37.572Z,997.54
2017-11-07T07:44:37.587Z,997.49
2017-11-07T07:45:37.560Z,997.52
2017-11-07T07:46:37.551Z,997.53
2017-11-07T07:47:37.551Z,997.53
2017-11-07T07:48:37.539Z,997.55
2017-11-07T07:49:37.536Z,997.57
2017-11-07T07:50:37.525Z,997.56
2017-11-07T07:51:37.521Z,997.55
2017-11-07T07:52:37.510Z,997.57
2017-11-07T07:53:37.504Z,997.53
2017-11-07T07:54:37.500Z,997.55
2017-11-07T07:55:37.496Z,997.54
2017-11-07T07:56:37.483Z,997.54
2017-11-07T07:57:37.476Z,997.54
2017-11-07T07:58:37.470Z,997.58
2017-11-07T07:59:37.462Z,997.62
2017-11-07T08:00:37.455Z,997.61
2017-11-07T08:01:37.453Z,997.60
2017-11-07T08:02:37.452Z,997.64
2017-11-07T08:03:37.442Z,997.64
2017-11-07T08:04:37.428Z,997.62
2017-11-07T08:05:37.422Z,997.64
2017-11-07T08:06:37.416Z,997.64
2017-11-07T08:07:37.409Z,997.64
2017-11-07T08:08:37.401Z,997.64
2017-11-07T08:09:37.401Z,997.61
2017-11-07T08:10:37.389Z,997.60
2017-11-07T08:11:37.381Z,997.59
2017-11-07T08:12:37.374Z,997.59
2017-11-07T08:13:37.367Z,997.55
2017-11-07T08:14:37.360Z,997.53
2017-11-07T08:15:37.356Z,997.47
2017-11-07T08:16:37.354Z,997.52
2017-11-07T08:17:37.340Z,997.48
2017-11-07T08:18:37.335Z,997.51
2017-11-07T08:19:37.330Z,997.52
2017-11-07T08:20:37.317Z,997.50
2017-11-07T08:21:37.320Z,997.49
2017-11-07T08:22:37.307Z,997.43
2017-11-07T08:23:37.302Z,997.43
2017-11-07T08:24:37.293Z,997.41
2017-11-07T08:25:37.287Z,997.44
2017-11-07T08:26:37.286Z,997.44
2017-11-07T08:27:37.270Z,997.44
2017-11-07T08:28:37.266Z,997.44
2017-11-07T08:29:37.257Z,997.44
2017-11-07T08:30:37.260Z,997.44
2017-11-07T08:31:37.245Z,997.44
2017-11-07T08:32:37.236Z,997.41
2017-11-07T08:33:37.233Z,997.44
2017-11-07T08:34:37.220Z,997.37
2017-11-07T08:35:37.217Z,997.39
2017-11-07T08:36:37.210Z,997.35
2017-11-07T08:37:37.210Z,997.38
2017-11-07T08:38:37.198Z,997.35
2017-11-07T08:39:37.190Z,997.33
2017-11-07T08:40:37.182Z,997.31
2017-11-07T08:41:37.177Z,997.29
2017-11-07T08:42:37.169Z,997.30
2017-11-07T08:43:37.164Z,997.35
2017-11-07T08:44:37.157Z,997.34
2017-11-07T08:45:37.149Z,997.30
2017-11-07T08:46:37.141Z,997.26
2017-11-07T08:47:37.135Z,997.27
2017-11-07T08:48:37.132Z,997.26
2017-11-07T08:49:37.119Z,997.26
2017-11-07T08:50:37.118Z,997.27
2017-11-07T08:51:37.109Z,997.23
2017-11-07T08:52:37.102Z,997.22
2017-11-07T08:53:37.100Z,997.20
2017-11-07T08:54:37.088Z,997.18
2017-11-07T08:55:37.081Z,997.15
2017-11-07T08:56:37.074Z,997.15
2017-11-07T08:57:37.065Z,997.14
2017-11-07T08:58:37.062Z,997.12
2017-11-07T08:59:37.054Z,997.11
2017-11-07T09:00:37.052Z,997.11
2017-11-07T09:01:37.040Z,997.06
2017-11-07T09:02:37.034Z,997.05
2017-11-07T09:03:37.028Z,997.07
2017-11-07T09:04:37.018Z,997.04
2017-11-07T09:05:37.017Z,997.07
2017-11-07T09:06:37.011Z,997.05
2017-11-07T09:07:36.998Z,997.02
2017-11-07T09:08:36.994Z,997.05
2017-11-07T09:09:36.985Z,997.04
2017-11-07T09:10:36.982Z,997.04
2017-11-07T09:11:36.972Z,997.05
2017-11-07T09:12:36.964Z,997.07
2017-11-07T09:13:36.962Z,997.05
2017-11-07T09:14:36.952Z,996.99
2017-11-07T09:15:36.948Z,996.97
2017-11-07T09:16:36.951Z,996.89
2017-11-07T09:17:36.932Z,996.84
2017-11-07T09:18:36.923Z,996.80
2017-11-07T09:19:36.919Z,996.81
2017-11-07T09:20:36.919Z,996.80
2017-11-07T09:21:36.907Z,996.80
2017-11-07T09:22:36.904Z,996.80
2017-11-07T09:23:36.913Z,996.80
2017-11-07T09:24:36.884Z,996.80
2017-11-07T09:25:36.878Z,996.80
2017-11-07T09:26:36.872Z,996.74
2017-11-07T09:27:36.863Z,996.73
2017-11-07T09:28:36.857Z,996.68
2017-11-07T09:29:36.857Z,996.69
2017-11-07T09:30:36.843Z,996.72
2017-11-07T09:31:36.836Z,996.77
2017-11-07T09:32:36.828Z,996.77
2017-11-07T09:33:36.823Z,996.77
2017-11-07T09:34:36.817Z,996.73
2017-11-07T09:35:36.809Z,996.77
2017-11-07T09:36:36.806Z,996.75
2017-11-07T09:37:36.817Z,996.75
2017-11-07T09:38:36.790Z,996.74
2017-11-07T09:39:36.784Z,996.78
2017-11-07T09:40:36.776Z,996.77
2017-11-07T09:41:36.770Z,996.77
2017-11-07T09:42:36.774Z,996.76
2017-11-07T09:43:36.759Z,996.76
2017-11-07T09:44:36.752Z,996.79
2017-11-07T09:45:36.745Z,996.76
2017-11-07T09:46:36.735Z,996.76
2017-11-07T09:47:36.728Z,996.74
2017-11-07T09:48:36.729Z,996.76
2017-11-07T09:49:36.728Z,996.70
2017-11-07T09:50:36.709Z,996.71
2017-11-07T09:51:36.704Z,996.70
2017-11-07T09:52:36.695Z,996.67
2017-11-07T09:53:36.689Z,996.69
2017-11-07T09:54:36.683Z,996.67
2017-11-07T09:55:36.676Z,996.68
2017-11-07T09:56:36.675Z,996.73
2017-11-07T09:57:36.662Z,996.69
2017-11-07T09:58:36.656Z,996.67
2017-11-07T09:59:36.648Z,996.67
2017-11-07T10:00:36.642Z,996.61
2017-11-07T10:01:36.648Z,996.59
2017-11-07T10:02:36.627Z,996.58
2017-11-07T10:03:36.626Z,996.61
2017-11-07T10:04:36.614Z,996.58
2017-11-07T10:05:36.607Z,996.59
2017-11-07T10:06:36.601Z,996.56
2017-11-07T10:07:36.593Z,996.54
2017-11-07T10:08:36.585Z,996.53
2017-11-07T10:09:36.580Z,996.52
2017-11-07T10:10:36.574Z,996.52
2017-11-07T10:11:36.574Z,996.54
2017-11-07T10:12:36.566Z,996.50
2017-11-07T10:13:36.555Z,996.51
2017-11-07T10:14:36.548Z,996.53
2017-11-07T10:15:36.544Z,996.49
2017-11-07T10:16:36.539Z,996.48
2017-11-07T10:17:36.528Z,996.47
2017-11-07T10:18:36.528Z,996.48
2017-11-07T10:19:36.512Z,996.47
2017-11-07T10:20:36.506Z,996.46
2017-11-07T10:21:36.502Z,996.43
2017-11-07T10:22:36.494Z,996.43
2017-11-07T10:23:36.486Z,996.44
2017-11-07T10:24:36.480Z,996.34
2017-11-07T10:25:36.486Z,996.37
2017-11-07T10:26:36.468Z,996.35
2017-11-07T10:27:36.459Z,996.37
2017-11-07T10:28:36.453Z,996.34
2017-11-07T10:29:36.447Z,996.32
2017-11-07T10:30:36.438Z,996.28
2017-11-07T10:31:36.442Z,996.24
2017-11-07T10:32:36.430Z,996.22
2017-11-07T10:33:36.419Z,996.25
2017-11-07T10:34:36.417Z,996.22
2017-11-07T10:35:36.408Z,996.22
2017-11-07T10:36:36.402Z,996.21
2017-11-07T10:37:36.393Z,996.20
2017-11-07T10:38:36.386Z,996.14
2017-11-07T10:39:36.388Z,996.09
2017-11-07T10:40:36.371Z,996.17
2017-11-07T10:41:36.365Z,996.15
2017-11-07T10:42:36.358Z,996.12
2017-11-07T10:43:36.347Z,996.11
2017-11-07T10:44:36.343Z,996.11
2017-11-07T10:45:36.338Z,996.11
2017-11-07T10:46:36.331Z,996.10
2017-11-07T10:47:36.324Z,996.09
2017-11-07T10:48:36.315Z,996.06
2017-11-07T10:49:36.310Z,996.04
2017-11-07T10:50:36.304Z,996.07
2017-11-07T10:51:36.298Z,996.02
2017-11-07T10:52:36.292Z,996.03
2017-11-07T10:53:36.283Z,996.00
2017-11-07T10:54:36.278Z,995.96
2017-11-07T10:55:36.273Z,995.94
2017-11-07T10:56:36.261Z,995.93
2017-11-07T10:57:36.250Z,995.96
2017-11-07T10:58:36.256Z,995.96
2017-11-07T10:59:36.241Z,996.01
2017-11-07T11:00:36.240Z,995.95
2017-11-07T11:01:36.234Z,995.93
2017-11-07T11:02:36.223Z,995.93
2017-11-07T11:03:36.216Z,995.90
2017-11-07T11:04:36.207Z,995.93
2017-11-07T11:05:36.206Z,995.90
2017-11-07T11:06:36.196Z,995.91
2017-11-07T11:07:36.190Z,995.88
2017-11-07T11:08:36.187Z,995.94
2017-11-07T11:09:36.177Z,995.86
2017-11-07T11:10:36.176Z,995.81
2017-11-07T11:11:36.163Z,995.86
2017-11-07T11:12:36.156Z,995.85
2017-11-07T11:13:36.147Z,995.80
2017-11-07T11:14:36.155Z,995.79
2017-11-07T11:15:36.137Z,995.77
2017-11-07T11:16:36.128Z,995.75
2017-11-07T11:17:36.146Z,995.72
2017-11-07T11:18:36.126Z,995.70
2017-11-07T11:19:36.108Z,995.68
2017-11-07T11:20:36.102Z,995.66
2017-11-07T11:21:36.093Z,995.66
2017-11-07T11:22:36.087Z,995.64
2017-11-07T11:23:36.082Z,995.66
2017-11-07T11:24:36.079Z,995.60
2017-11-07T11:25:36.067Z,995.61
2017-11-07T11:26:36.068Z,995.58
2017-11-07T11:27:36.050Z,995.55
2017-11-07T11:28:36.043Z,995.58
2017-11-07T11:29:36.043Z,995.51
2017-11-07T11:30:36.041Z,995.47
2017-11-07T11:31:36.027Z,995.43
2017-11-07T11:32:36.021Z,995.42
2017-11-07T11:33:36.013Z,995.41
2017-11-07T11:34:36.013Z,995.41
2017-11-07T11:35:35.999Z,995.42
2017-11-07T11:36:35.994Z,995.41
2017-11-07T11:37:35.994Z,995.38
2017-11-07T11:38:35.983Z,995.37
2017-11-07T11:39:35.974Z,995.36
2017-11-07T11:40:35.966Z,995.32
2017-11-07T11:41:35.966Z,995.36
2017-11-07T11:42:35.952Z,995.30
2017-11-07T11:43:35.943Z,995.27
2017-11-07T11:44:35.947Z,995.26
2017-11-07T11:45:35.932Z,995.31
2017-11-07T11:46:35.929Z,995.30
2017-11-07T11:47:35.921Z,995.26
2017-11-07T11:48:35.909Z,995.23
2017-11-07T11:49:35.904Z,995.18
2017-11-07T11:50:35.899Z,995.18
2017-11-07T11:51:35.911Z,995.17
2017-11-07T11:52:35.883Z,995.13
2017-11-07T11:53:35.886Z,995.12
2017-11-07T11:54:35.873Z,995.09
2017-11-07T11:55:35.863Z,995.10
2017-11-07T11:56:35.863Z,995.09
2017-11-07T11:57:35.854Z,995.08
2017-11-07T11:58:35.846Z,995.03
2017-11-07T11:59:35.837Z,995.01
2017-11-07T12:00:35.831Z,995.02
2017-11-07T12:01:35.823Z,994.99
2017-11-07T12:02:35.820Z,994.92
2017-11-07T12:03:35.810Z,994.97
2017-11-07T12:04:35.803Z,994.93
2017-11-07T12:05:35.804Z,994.96
2017-11-07T12:06:35.790Z,994.92
2017-11-07T12:07:35.788Z,994.92
2017-11-07T12:08:35.777Z,994.89
2017-11-07T12:09:35.776Z,994.83
2017-11-07T12:10:35.763Z,994.84
2017-11-07T12:11:35.755Z,994.81
2017-11-07T12:12:35.749Z,994.79
2017-11-07T12:13:35.747Z,994.80
2017-11-07T12:14:35.737Z,994.76
2017-11-07T12:15:35.730Z,994.71
2017-11-07T12:16:35.725Z,994.72
2017-11-07T12:17:35.715Z,994.71
2017-11-07T12:18:35.715Z,994.72
2017-11-07T12:19:35.703Z,994.70
2017-11-07T12:20:35.701Z,994.73
2017-11-07T12:21:35.691Z,994.71
2017-11-07T12:22:35.683Z,994.70
2017-11-07T12:23:35.678Z,994.69
2017-11-07T12:24:35.670Z,994.63
2017-11-07T12:25:35.661Z,994.64
2017-11-07T12:26:35.661Z,994.67